sensor_id;sensor_type;location;lat;lon;timestamp;pressure;altitude;pressure_sealevel;temperature;humidity
65376;BME280;51976;47.332;9.404;2023-01-30T00:01:30;93372.63;;;19.04;28.96
65376;BME280;51976;47.332;9.404;2023-01-30T00:03:56;93367.47;;;19.03;28.98
65376;BME280;51976;47.332;9.404;2023-01-30T00:06:21;93368.44;;;19.07;28.67
65376;BME280;51976;47.332;9.404;2023-01-30T00:08:47;93374.25;;;19.05;28.94
65376;BME280;51976;47.332;9.404;2023-01-30T00:11:15;93373.59;;;19.08;28.95
65376;BME280;51976;47.332;9.404;2023-01-30T00:13:42;93359.44;;;19.06;28.89
65376;BME280;51976;47.332;9.404;2023-01-30T00:16:08;93363.00;;;19.07;28.56
65376;BME280;51976;47.332;9.404;2023-01-30T00:18:34;93363.31;;;19.05;28.90
65376;BME280;51976;47.332;9.404;2023-01-30T00:21:03;93361.38;;;19.06;28.80
65376;BME280;51976;47.332;9.404;2023-01-30T00:23:30;93364.13;;;19.06;28.78
65376;BME280;51976;47.332;9.404;2023-01-30T00:25:55;93357.19;;;19.08;28.75
65376;BME280;51976;47.332;9.404;2023-01-30T00:28:21;93354.63;;;19.03;28.82
65376;BME280;51976;47.332;9.404;2023-01-30T00:30:48;93357.53;;;19.07;28.69
65376;BME280;51976;47.332;9.404;2023-01-30T00:33:15;93358.31;;;19.07;28.56
65376;BME280;51976;47.332;9.404;2023-01-30T00:35:44;93361.38;;;19.06;28.73
65376;BME280;51976;47.332;9.404;2023-01-30T00:38:10;93349.16;;;19.03;28.81
65376;BME280;51976;47.332;9.404;2023-01-30T00:40:35;93348.03;;;19.04;28.64
65376;BME280;51976;47.332;9.404;2023-01-30T00:43:00;93342.25;;;19.06;28.80
65376;BME280;51976;47.332;9.404;2023-01-30T00:45:46;93348.53;;;19.06;28.74
65376;BME280;51976;47.332;9.404;2023-01-30T00:48:32;93350.13;;;19.07;28.69
65376;BME280;51976;47.332;9.404;2023-01-30T00:50:57;93342.41;;;19.09;28.66
65376;BME280;51976;47.332;9.404;2023-01-30T00:53:23;93340.00;;;19.08;28.67
65376;BME280;51976;47.332;9.404;2023-01-30T00:55:52;93341.44;;;19.05;28.74
65376;BME280;51976;47.332;9.404;2023-01-30T00:58:19;93333.72;;;19.07;28.55
65376;BME280;51976;47.332;9.404;2023-01-30T01:00:44;93334.84;;;19.06;28.61
65376;BME280;51976;47.332;9.404;2023-01-30T01:03:10;93330.19;;;19.07;28.85
65376;BME280;51976;47.332;9.404;2023-01-30T01:05:35;93330.34;;;19.10;28.75
65376;BME280;51976;47.332;9.404;2023-01-30T01:08:01;93333.72;;;19.07;28.57
65376;BME280;51976;47.332;9.404;2023-01-30T01:10:26;93327.47;;;19.07;28.73
65376;BME280;51976;47.332;9.404;2023-01-30T01:12:52;93326.97;;;19.05;28.81
65376;BME280;51976;47.332;9.404;2023-01-30T01:15:18;93321.19;;;19.06;28.62
65376;BME280;51976;47.332;9.404;2023-01-30T01:17:44;93307.22;;;19.08;28.60
65376;BME280;51976;47.332;9.404;2023-01-30T01:20:09;93307.84;;;19.05;28.75
65376;BME280;51976;47.332;9.404;2023-01-30T01:22:35;93313.81;;;19.07;28.61
65376;BME280;51976;47.332;9.404;2023-01-30T01:25:00;93308.00;;;19.08;28.49
65376;BME280;51976;47.332;9.404;2023-01-30T01:27:27;93311.56;;;19.09;28.42
65376;BME280;51976;47.332;9.404;2023-01-30T01:29:53;93302.22;;;19.10;28.76
65376;BME280;51976;47.332;9.404;2023-01-30T01:32:19;93299.81;;;19.08;28.65
65376;BME280;51976;47.332;9.404;2023-01-30T01:34:45;93306.41;;;19.07;28.53
65376;BME280;51976;47.332;9.404;2023-01-30T01:37:10;93300.94;;;19.07;28.53
65376;BME280;51976;47.332;9.404;2023-01-30T01:39:36;93299.81;;;19.08;28.51
65376;BME280;51976;47.332;9.404;2023-01-30T01:42:23;93300.94;;;19.07;28.51
65376;BME280;51976;47.332;9.404;2023-01-30T01:45:13;93294.34;;;19.08;28.41
65376;BME280;51976;47.332;9.404;2023-01-30T01:47:49;93282.94;;;19.06;28.73
65376;BME280;51976;47.332;9.404;2023-01-30T01:50:22;93284.56;;;19.07;28.66
65376;BME280;51976;47.332;9.404;2023-01-30T01:52:51;93280.22;;;19.06;28.59
65376;BME280;51976;47.332;9.404;2023-01-30T01:55:20;93279.88;;;19.08;28.40
65376;BME280;51976;47.332;9.404;2023-01-30T01:57:51;93272.16;;;19.10;28.53
65376;BME280;51976;47.332;9.404;2023-01-30T02:00:19;93279.56;;;19.09;28.55
65376;BME280;51976;47.332;9.404;2023-01-30T02:02:51;93270.56;;;19.09;28.55
65376;BME280;51976;47.332;9.404;2023-01-30T02:05:18;93275.53;;;19.07;28.23
65376;BME280;51976;47.332;9.404;2023-01-30T02:08:02;93274.59;;;19.11;28.37
65376;BME280;51976;47.332;9.404;2023-01-30T02:10:38;93272.97;;;19.10;28.62
65376;BME280;51976;47.332;9.404;2023-01-30T02:13:07;93265.91;;;19.09;28.54
65376;BME280;51976;47.332;9.404;2023-01-30T02:15:33;93266.72;;;19.10;28.59
65376;BME280;51976;47.332;9.404;2023-01-30T02:17:59;93261.56;;;19.08;28.58
65376;BME280;51976;47.332;9.404;2023-01-30T02:20:53;93268.63;;;19.09;28.41
65376;BME280;51976;47.332;9.404;2023-01-30T02:23:51;93263.50;;;19.08;28.55
65376;BME280;51976;47.332;9.404;2023-01-30T02:26:46;93270.56;;;19.09;28.49
65376;BME280;51976;47.332;9.404;2023-01-30T02:29:37;93266.72;;;19.10;28.49
65376;BME280;51976;47.332;9.404;2023-01-30T02:32:17;93277.97;;;19.08;28.29
65376;BME280;51976;47.332;9.404;2023-01-30T02:35:01;93287.28;;;19.07;28.47
65376;BME280;51976;47.332;9.404;2023-01-30T02:37:44;93284.56;;;19.07;28.44
65376;BME280;51976;47.332;9.404;2023-01-30T02:40:38;93283.44;;;19.08;28.62
65376;BME280;51976;47.332;9.404;2023-01-30T02:43:20;93284.88;;;19.06;28.55
65376;BME280;51976;47.332;9.404;2023-01-30T02:46:11;93287.75;;;19.09;28.71
65376;BME280;51976;47.332;9.404;2023-01-30T02:48:46;93299.50;;;19.10;28.51
65376;BME280;51976;47.332;9.404;2023-01-30T02:51:22;93296.44;;;19.11;28.22
65376;BME280;51976;47.332;9.404;2023-01-30T02:53:50;93296.75;;;19.10;28.27
65376;BME280;51976;47.332;9.404;2023-01-30T02:56:15;93289.38;;;19.10;28.21
65376;BME280;51976;47.332;9.404;2023-01-30T02:58:47;93282.63;;;19.08;28.43
65376;BME280;51976;47.332;9.404;2023-01-30T03:01:54;93289.38;;;19.10;28.45
65376;BME280;51976;47.332;9.404;2023-01-30T03:04:36;93293.22;;;19.09;28.36
65376;BME280;51976;47.332;9.404;2023-01-30T03:07:28;93293.22;;;19.09;28.27
65376;BME280;51976;47.332;9.404;2023-01-30T03:10:21;93281.16;;;19.10;28.38
65376;BME280;51976;47.332;9.404;2023-01-30T03:12:53;93295.47;;;19.07;28.50
65376;BME280;51976;47.332;9.404;2023-01-30T03:15:36;93303.03;;;19.10;28.40
65376;BME280;51976;47.332;9.404;2023-01-30T03:18:04;93306.88;;;19.09;28.17
65376;BME280;51976;47.332;9.404;2023-01-30T03:20:29;93304.81;;;19.06;28.46
65376;BME280;51976;47.332;9.404;2023-01-30T03:22:55;93311.88;;;19.07;28.34
65376;BME280;51976;47.332;9.404;2023-01-30T03:25:23;93306.88;;;19.09;28.30
65376;BME280;51976;47.332;9.404;2023-01-30T03:27:52;93304.47;;;19.08;28.54
65376;BME280;51976;47.332;9.404;2023-01-30T03:30:18;93304.97;;;19.10;28.34
65376;BME280;51976;47.332;9.404;2023-01-30T03:32:44;93312.69;;;19.08;28.60
65376;BME280;51976;47.332;9.404;2023-01-30T03:35:09;93309.94;;;19.08;28.24
65376;BME280;51976;47.332;9.404;2023-01-30T03:37:35;93315.09;;;19.09;28.42
65376;BME280;51976;47.332;9.404;2023-01-30T03:40:01;93308.81;;;19.09;28.15
65376;BME280;51976;47.332;9.404;2023-01-30T03:42:26;93297.09;;;19.08;28.34
65376;BME280;51976;47.332;9.404;2023-01-30T03:44:51;93298.69;;;19.09;28.36
65376;BME280;51976;47.332;9.404;2023-01-30T03:47:17;93313.16;;;19.10;28.39
65376;BME280;51976;47.332;9.404;2023-01-30T03:49:42;93325.38;;;19.12;28.24
65376;BME280;51976;47.332;9.404;2023-01-30T03:52:07;93343.38;;;19.13;28.07
65376;BME280;51976;47.332;9.404;2023-01-30T03:54:33;93348.69;;;19.10;28.20
65376;BME280;51976;47.332;9.404;2023-01-30T03:56:58;93362.34;;;19.10;28.32
65376;BME280;51976;47.332;9.404;2023-01-30T03:59:24;93361.53;;;19.09;28.59
65376;BME280;51976;47.332;9.404;2023-01-30T04:01:49;93361.22;;;19.11;28.11
65376;BME280;51976;47.332;9.404;2023-01-30T04:04:14;93349.97;;;19.12;28.23
65376;BME280;51976;47.332;9.404;2023-01-30T04:06:40;93339.69;;;19.09;28.42
65376;BME280;51976;47.332;9.404;2023-01-30T04:09:05;93331.00;;;19.07;28.47
65376;BME280;51976;47.332;9.404;2023-01-30T04:11:30;93325.53;;;19.07;28.40
65376;BME280;51976;47.332;9.404;2023-01-30T04:13:56;93318.31;;;19.11;28.51
65376;BME280;51976;47.332;9.404;2023-01-30T04:16:24;93332.28;;;19.10;28.29
65376;BME280;51976;47.332;9.404;2023-01-30T04:18:50;93316.69;;;19.10;28.22
65376;BME280;51976;47.332;9.404;2023-01-30T04:21:15;93315.09;;;19.09;28.36
65376;BME280;51976;47.332;9.404;2023-01-30T04:23:41;93312.03;;;19.11;28.26
65376;BME280;51976;47.332;9.404;2023-01-30T04:26:07;93333.91;;;19.11;28.39
65376;BME280;51976;47.332;9.404;2023-01-30T04:28:33;93340.97;;;19.12;28.27
65376;BME280;51976;47.332;9.404;2023-01-30T04:30:58;93352.53;;;19.09;28.17
65376;BME280;51976;47.332;9.404;2023-01-30T04:33:24;93361.88;;;19.08;28.24
65376;BME280;51976;47.332;9.404;2023-01-30T04:35:53;93348.53;;;19.06;28.36
65376;BME280;51976;47.332;9.404;2023-01-30T04:38:19;93314.94;;;19.06;28.43
65376;BME280;51976;47.332;9.404;2023-01-30T04:40:49;93302.88;;;19.07;28.37
65376;BME280;51976;47.332;9.404;2023-01-30T04:43:14;93332.94;;;19.07;28.27
65376;BME280;51976;47.332;9.404;2023-01-30T04:45:43;93328.75;;;19.09;28.42
65376;BME280;51976;47.332;9.404;2023-01-30T04:48:09;93330.69;;;19.09;28.18
65376;BME280;51976;47.332;9.404;2023-01-30T04:50:34;93336.94;;;19.09;28.33
65376;BME280;51976;47.332;9.404;2023-01-30T04:53:00;93333.41;;;19.09;28.40
65376;BME280;51976;47.332;9.404;2023-01-30T04:55:25;93332.13;;;19.06;28.19
65376;BME280;51976;47.332;9.404;2023-01-30T04:57:51;93337.09;;;19.04;28.30
65376;BME280;51976;47.332;9.404;2023-01-30T05:00:16;93329.06;;;19.08;28.10
65376;BME280;51976;47.332;9.404;2023-01-30T05:02:42;93329.72;;;19.05;28.21
65376;BME280;51976;47.332;9.404;2023-01-30T05:05:08;93309.47;;;19.06;28.32
65376;BME280;51976;47.332;9.404;2023-01-30T05:07:33;93293.72;;;19.03;28.13
65376;BME280;51976;47.332;9.404;2023-01-30T05:09:58;93284.72;;;19.02;28.51
65376;BME280;51976;47.332;9.404;2023-01-30T05:12:24;93290.19;;;19.02;28.31
65376;BME280;51976;47.332;9.404;2023-01-30T05:14:49;93268.63;;;19.01;28.33
65376;BME280;51976;47.332;9.404;2023-01-30T05:17:15;93264.31;;;19.00;28.31
65376;BME280;51976;47.332;9.404;2023-01-30T05:19:40;93260.78;;;18.99;28.53
65376;BME280;51976;47.332;9.404;2023-01-30T05:22:05;93254.19;;;19.00;28.25
65376;BME280;51976;47.332;9.404;2023-01-30T05:24:31;93244.84;;;19.01;28.46
65376;BME280;51976;47.332;9.404;2023-01-30T05:26:56;93238.09;;;18.99;28.20
65376;BME280;51976;47.332;9.404;2023-01-30T05:29:21;93232.81;;;19.02;28.37
65376;BME280;51976;47.332;9.404;2023-01-30T05:31:47;93234.56;;;18.98;28.49
65376;BME280;51976;47.332;9.404;2023-01-30T05:34:12;93233.75;;;18.98;28.47
65376;BME280;51976;47.332;9.404;2023-01-30T05:36:37;93237.31;;;18.98;28.49
65376;BME280;51976;47.332;9.404;2023-01-30T05:39:03;93226.53;;;19.02;28.39
65376;BME280;51976;47.332;9.404;2023-01-30T05:41:28;93225.72;;;19.01;28.44
65376;BME280;51976;47.332;9.404;2023-01-30T05:43:54;93224.13;;;19.00;28.39
65376;BME280;51976;47.332;9.404;2023-01-30T05:46:19;93229.59;;;19.00;28.58
65376;BME280;51976;47.332;9.404;2023-01-30T05:48:45;93230.72;;;18.99;28.31
65376;BME280;51976;47.332;9.404;2023-01-30T05:51:18;93228.78;;;19.00;28.45
65376;BME280;51976;47.332;9.404;2023-01-30T05:53:43;93223.66;;;18.98;28.33
65376;BME280;51976;47.332;9.404;2023-01-30T05:56:09;93218.66;;;19.00;28.39
65376;BME280;51976;47.332;9.404;2023-01-30T05:58:34;93235.84;;;19.01;28.36
65376;BME280;51976;47.332;9.404;2023-01-30T06:01:02;93223.00;;;19.01;28.27
65376;BME280;51976;47.332;9.404;2023-01-30T06:03:27;93224.59;;;19.02;28.35
65376;BME280;51976;47.332;9.404;2023-01-30T06:05:53;93229.59;;;19.00;28.28
65376;BME280;51976;47.332;9.404;2023-01-30T06:08:18;93226.69;;;19.05;28.16
65376;BME280;51976;47.332;9.404;2023-01-30T06:10:44;93216.72;;;19.09;28.25
65376;BME280;51976;47.332;9.404;2023-01-30T06:13:09;93223.13;;;19.13;28.08
65376;BME280;51976;47.332;9.404;2023-01-30T06:15:35;93224.06;;;19.17;28.25
65376;BME280;51976;47.332;9.404;2023-01-30T06:18:01;93240.63;;;19.21;28.05
65376;BME280;51976;47.332;9.404;2023-01-30T06:20:26;93245.13;;;19.25;28.25
65376;BME280;51976;47.332;9.404;2023-01-30T06:22:51;93244.94;;;19.31;28.16
65376;BME280;51976;47.332;9.404;2023-01-30T06:25:17;93236.56;;;19.36;28.01
65376;BME280;51976;47.332;9.404;2023-01-30T06:27:44;93219.69;;;19.34;28.27
65376;BME280;51976;47.332;9.404;2023-01-30T06:30:10;93231.09;;;19.36;28.17
65376;BME280;51976;47.332;9.404;2023-01-30T06:32:35;93231.59;;;19.38;28.12
65376;BME280;51976;47.332;9.404;2023-01-30T06:35:01;93238.34;;;19.40;27.98
65376;BME280;51976;47.332;9.404;2023-01-30T06:37:26;93236.84;;;19.43;28.01
65376;BME280;51976;47.332;9.404;2023-01-30T06:39:51;93236.03;;;19.42;27.82
65376;BME280;51976;47.332;9.404;2023-01-30T06:42:17;93232.19;;;19.43;27.84
65376;BME280;51976;47.332;9.404;2023-01-30T06:44:42;93237.31;;;19.45;27.78
65376;BME280;51976;47.332;9.404;2023-01-30T06:47:07;93237.00;;;19.46;28.00
65376;BME280;51976;47.332;9.404;2023-01-30T06:49:33;93244.41;;;19.46;28.00
65376;BME280;51976;47.332;9.404;2023-01-30T06:51:58;93226.88;;;19.47;28.07
65376;BME280;51976;47.332;9.404;2023-01-30T06:54:24;93214.31;;;19.46;28.02
65376;BME280;51976;47.332;9.404;2023-01-30T06:56:49;93205.97;;;19.51;28.09
65376;BME280;51976;47.332;9.404;2023-01-30T06:59:14;93216.91;;;19.51;28.14
65376;BME280;51976;47.332;9.404;2023-01-30T07:01:40;93248.09;;;19.50;27.88
65376;BME280;51976;47.332;9.404;2023-01-30T07:04:05;93247.13;;;19.54;27.92
65376;BME280;51976;47.332;9.404;2023-01-30T07:06:31;93259.19;;;19.53;28.04
65376;BME280;51976;47.332;9.404;2023-01-30T07:08:56;93263.88;;;19.53;28.02
65376;BME280;51976;47.332;9.404;2023-01-30T07:11:23;93263.69;;;19.58;27.83
65376;BME280;51976;47.332;9.404;2023-01-30T07:13:49;93273.84;;;19.57;28.00
65376;BME280;51976;47.332;9.404;2023-01-30T07:16:14;93283.50;;;19.55;27.95
65376;BME280;51976;47.332;9.404;2023-01-30T07:18:39;93277.38;;;19.58;27.77
65376;BME280;51976;47.332;9.404;2023-01-30T07:21:05;93295.72;;;19.57;27.90
65376;BME280;51976;47.332;9.404;2023-01-30T07:23:30;93293.44;;;19.59;27.70
65376;BME280;51976;47.332;9.404;2023-01-30T07:25:56;93288.78;;;19.60;27.75
65376;BME280;51976;47.332;9.404;2023-01-30T07:28:21;93287.34;;;19.63;28.11
65376;BME280;51976;47.332;9.404;2023-01-30T07:30:46;93290.06;;;19.63;27.90
65376;BME280;51976;47.332;9.404;2023-01-30T07:33:16;93297.16;;;19.64;27.66
65376;BME280;51976;47.332;9.404;2023-01-30T07:35:42;93303.75;;;19.63;27.97
65376;BME280;51976;47.332;9.404;2023-01-30T07:38:07;93321.44;;;19.65;27.79
65376;BME280;51976;47.332;9.404;2023-01-30T07:40:33;93326.09;;;19.65;27.86
65376;BME280;51976;47.332;9.404;2023-01-30T07:43:01;93331.56;;;19.65;27.86
65376;BME280;51976;47.332;9.404;2023-01-30T07:45:40;93334.16;;;19.61;28.12
65376;BME280;51976;47.332;9.404;2023-01-30T07:48:06;93337.53;;;19.67;27.90
65376;BME280;51976;47.332;9.404;2023-01-30T07:50:32;93347.34;;;19.68;27.91
65376;BME280;51976;47.332;9.404;2023-01-30T07:52:58;93350.38;;;19.66;27.97
65376;BME280;51976;47.332;9.404;2023-01-30T07:55:23;93354.72;;;19.67;28.18
65376;BME280;51976;47.332;9.404;2023-01-30T07:57:49;93366.16;;;19.69;27.97
65376;BME280;51976;47.332;9.404;2023-01-30T08:00:14;93365.00;;;19.70;27.91
65376;BME280;51976;47.332;9.404;2023-01-30T08:02:40;93356.00;;;19.70;27.95
65376;BME280;51976;47.332;9.404;2023-01-30T08:05:06;93368.88;;;19.69;27.73
65376;BME280;51976;47.332;9.404;2023-01-30T08:07:32;93357.16;;;19.69;27.82
65376;BME280;51976;47.332;9.404;2023-01-30T08:09:57;93354.53;;;19.72;27.90
65376;BME280;51976;47.332;9.404;2023-01-30T08:12:23;93355.34;;;19.73;28.00
65376;BME280;51976;47.332;9.404;2023-01-30T08:14:48;93342.47;;;19.73;28.06
65376;BME280;51976;47.332;9.404;2023-01-30T08:17:14;93328.31;;;19.71;28.05
65376;BME280;51976;47.332;9.404;2023-01-30T08:19:39;93324.13;;;19.74;28.03
65376;BME280;51976;47.332;9.404;2023-01-30T08:22:05;93330.06;;;19.76;27.97
65376;BME280;51976;47.332;9.404;2023-01-30T08:24:30;93336.66;;;19.75;27.76
65376;BME280;51976;47.332;9.404;2023-01-30T08:26:56;93344.22;;;19.78;27.88
65376;BME280;51976;47.332;9.404;2023-01-30T08:29:21;93354.38;;;19.77;27.83
65376;BME280;51976;47.332;9.404;2023-01-30T08:31:46;93345.34;;;19.77;27.74
65376;BME280;51976;47.332;9.404;2023-01-30T08:34:12;93356.28;;;19.77;28.07
65376;BME280;51976;47.332;9.404;2023-01-30T08:36:37;93364.19;;;19.78;28.11
65376;BME280;51976;47.332;9.404;2023-01-30T08:39:02;93366.59;;;19.80;28.07
65376;BME280;51976;47.332;9.404;2023-01-30T08:41:28;93366.09;;;19.78;27.97
65376;BME280;51976;47.332;9.404;2023-01-30T08:43:53;93349.38;;;19.79;28.13
65376;BME280;51976;47.332;9.404;2023-01-30T08:46:18;93350.66;;;19.82;27.95
65376;BME280;51976;47.332;9.404;2023-01-30T08:48:46;93365.13;;;19.82;28.12
65376;BME280;51976;47.332;9.404;2023-01-30T08:51:12;93372.53;;;19.82;27.87
65376;BME280;51976;47.332;9.404;2023-01-30T08:53:37;93367.38;;;19.80;28.10
65376;BME280;51976;47.332;9.404;2023-01-30T08:56:02;93369.00;;;19.81;28.09
65376;BME280;51976;47.332;9.404;2023-01-30T08:58:28;93380.75;;;19.82;27.93
65376;BME280;51976;47.332;9.404;2023-01-30T09:00:53;93382.34;;;19.83;27.93
65376;BME280;51976;47.332;9.404;2023-01-30T09:03:19;93376.22;;;19.86;27.79
65376;BME280;51976;47.332;9.404;2023-01-30T09:05:44;93373.34;;;19.82;27.99
65376;BME280;51976;47.332;9.404;2023-01-30T09:08:10;93355.16;;;19.86;27.84
65376;BME280;51976;47.332;9.404;2023-01-30T09:10:36;93342.28;;;19.87;27.98
65376;BME280;51976;47.332;9.404;2023-01-30T09:13:02;93330.03;;;19.84;28.07
65376;BME280;51976;47.332;9.404;2023-01-30T09:15:29;93332.94;;;19.88;28.22
65376;BME280;51976;47.332;9.404;2023-01-30T09:17:55;93323.13;;;19.87;27.94
65376;BME280;51976;47.332;9.404;2023-01-30T09:20:20;93343.56;;;19.89;28.13
65376;BME280;51976;47.332;9.404;2023-01-30T09:22:46;93364.63;;;19.89;28.18
65376;BME280;51976;47.332;9.404;2023-01-30T09:25:11;93381.06;;;19.89;28.25
65376;BME280;51976;47.332;9.404;2023-01-30T09:27:37;93383.28;;;19.96;28.15
65376;BME280;51976;47.332;9.404;2023-01-30T09:30:04;93396.03;;;19.91;28.04
65376;BME280;51976;47.332;9.404;2023-01-30T09:32:30;93393.75;;;19.93;28.04
65376;BME280;51976;47.332;9.404;2023-01-30T09:34:55;93398.44;;;19.93;27.97
65376;BME280;51976;47.332;9.404;2023-01-30T09:37:21;93377.66;;;19.92;28.00
65376;BME280;51976;47.332;9.404;2023-01-30T09:39:46;93385.06;;;19.91;27.74
65376;BME280;51976;47.332;9.404;2023-01-30T09:42:38;93374.94;;;19.92;28.17
65376;BME280;51976;47.332;9.404;2023-01-30T09:45:33;93371.06;;;19.93;27.81
65376;BME280;51976;47.332;9.404;2023-01-30T09:51:09;93360.44;;;19.91;28.01
65376;BME280;51976;47.332;9.404;2023-01-30T09:53:56;93375.88;;;19.96;28.24
65376;BME280;51976;47.332;9.404;2023-01-30T09:56:25;93379.44;;;19.97;27.94
65376;BME280;51976;47.332;9.404;2023-01-30T09:58:56;93383.28;;;19.96;28.07
65376;BME280;51976;47.332;9.404;2023-01-30T10:01:35;93390.69;;;19.95;28.05
65376;BME280;51976;47.332;9.404;2023-01-30T10:04:16;93384.53;;;19.98;28.11
65376;BME280;51976;47.332;9.404;2023-01-30T10:07:03;93386.47;;;19.98;28.08
65376;BME280;51976;47.332;9.404;2023-01-30T10:09:48;93388.41;;;19.97;28.20
65376;BME280;51976;47.332;9.404;2023-01-30T10:15:27;93363.47;;;19.99;28.34
65376;BME280;51976;47.332;9.404;2023-01-30T10:18:09;93364.75;;;20.01;28.38
65376;BME280;51976;47.332;9.404;2023-01-30T10:21:09;93361.19;;;20.01;27.97
65376;BME280;51976;47.332;9.404;2023-01-30T10:23:54;93354.59;;;20.02;28.03
65376;BME280;51976;47.332;9.404;2023-01-30T10:26:26;93340.91;;;20.02;28.30
65376;BME280;51976;47.332;9.404;2023-01-30T10:29:05;93346.88;;;20.04;28.16
65376;BME280;51976;47.332;9.404;2023-01-30T10:31:41;93345.25;;;20.03;28.21
65376;BME280;51976;47.332;9.404;2023-01-30T10:34:13;93353.28;;;20.08;28.31
65376;BME280;51976;47.332;9.404;2023-01-30T10:36:47;93350.56;;;20.08;28.27
65376;BME280;51976;47.332;9.404;2023-01-30T10:39:23;93356.81;;;20.08;28.29
65376;BME280;51976;47.332;9.404;2023-01-30T10:42:08;93351.97;;;20.14;28.15
65376;BME280;51976;47.332;9.404;2023-01-30T10:44:34;93349.38;;;20.17;28.35
65376;BME280;51976;47.332;9.404;2023-01-30T10:47:11;93354.88;;;20.17;28.30
65376;BME280;51976;47.332;9.404;2023-01-30T10:49:44;93363.69;;;20.23;28.23
65376;BME280;51976;47.332;9.404;2023-01-30T10:55:31;93369.59;;;20.34;27.99
65376;BME280;51976;47.332;9.404;2023-01-30T10:58:10;93364.59;;;20.44;28.13
65376;BME280;51976;47.332;9.404;2023-01-30T11:00:45;93356.19;;;20.49;28.22
65376;BME280;51976;47.332;9.404;2023-01-30T11:03:22;93350.31;;;20.59;28.04
65376;BME280;51976;47.332;9.404;2023-01-30T11:05:51;93343.03;;;20.64;28.11
65376;BME280;51976;47.332;9.404;2023-01-30T11:08:21;93323.06;;;20.63;28.32
65376;BME280;51976;47.332;9.404;2023-01-30T11:10:47;93297.13;;;20.60;28.19
65376;BME280;51976;47.332;9.404;2023-01-30T11:13:21;93284.69;;;20.63;28.44
65376;BME280;51976;47.332;9.404;2023-01-30T11:15:49;93284.84;;;20.67;28.30
65376;BME280;51976;47.332;9.404;2023-01-30T11:18:17;93274.97;;;20.74;28.30
65376;BME280;51976;47.332;9.404;2023-01-30T11:20:44;93276.69;;;20.79;28.50
65376;BME280;51976;47.332;9.404;2023-01-30T11:23:30;93284.03;;;20.87;28.36
65376;BME280;51976;47.332;9.404;2023-01-30T11:25:57;93287.50;;;20.96;28.24
65376;BME280;51976;47.332;9.404;2023-01-30T11:28:25;93277.81;;;20.99;28.16
65376;BME280;51976;47.332;9.404;2023-01-30T11:30:58;93265.84;;;21.03;28.28
65376;BME280;51976;47.332;9.404;2023-01-30T11:33:32;93275.09;;;21.11;28.10
65376;BME280;51976;47.332;9.404;2023-01-30T11:36:02;93258.78;;;21.14;28.16
65376;BME280;51976;47.332;9.404;2023-01-30T11:38:31;93246.00;;;21.18;28.10
65376;BME280;51976;47.332;9.404;2023-01-30T11:41:05;93250.84;;;21.21;28.01
65376;BME280;51976;47.332;9.404;2023-01-30T11:43:32;93239.34;;;21.28;28.38
65376;BME280;51976;47.332;9.404;2023-01-30T11:45:59;93245.84;;;21.36;28.24
65376;BME280;51976;47.332;9.404;2023-01-30T11:48:27;93234.06;;;21.35;28.33
65376;BME280;51976;47.332;9.404;2023-01-30T11:50:58;93229.19;;;21.41;28.32
65376;BME280;51976;47.332;9.404;2023-01-30T11:53:37;93221.88;;;21.45;28.27
65376;BME280;51976;47.332;9.404;2023-01-30T11:56:11;93204.75;;;21.48;28.15
65376;BME280;51976;47.332;9.404;2023-01-30T11:58:39;93197.22;;;21.57;28.05
65376;BME280;51976;47.332;9.404;2023-01-30T12:01:08;93189.34;;;21.55;28.09
65376;BME280;51976;47.332;9.404;2023-01-30T12:03:46;93181.66;;;21.61;28.20
65376;BME280;51976;47.332;9.404;2023-01-30T12:06:23;93184.16;;;21.66;28.48
65376;BME280;51976;47.332;9.404;2023-01-30T12:08:53;93188.63;;;21.71;28.41
65376;BME280;51976;47.332;9.404;2023-01-30T12:11:40;93186.69;;;21.71;28.14
65376;BME280;51976;47.332;9.404;2023-01-30T12:14:25;93179.03;;;21.77;28.26
65376;BME280;51976;47.332;9.404;2023-01-30T12:17:10;93187.72;;;21.79;28.50
65376;BME280;51976;47.332;9.404;2023-01-30T12:19:56;93178.34;;;21.80;28.26
65376;BME280;51976;47.332;9.404;2023-01-30T12:22:46;93179.28;;;21.84;28.36
65376;BME280;51976;47.332;9.404;2023-01-30T12:25:24;93180.06;;;21.84;28.31
65376;BME280;51976;47.332;9.404;2023-01-30T12:28:18;93168.16;;;21.92;28.46
65376;BME280;51976;47.332;9.404;2023-01-30T12:30:55;93165.41;;;21.92;28.69
65376;BME280;51976;47.332;9.404;2023-01-30T12:33:25;93163.91;;;21.95;28.65
65376;BME280;51976;47.332;9.404;2023-01-30T12:39:19;93160.94;;;22.00;28.51
65376;BME280;51976;47.332;9.404;2023-01-30T12:42:20;93176.50;;;21.96;28.44
65376;BME280;51976;47.332;9.404;2023-01-30T12:45:13;93176.06;;;22.06;28.42
65376;BME280;51976;47.332;9.404;2023-01-30T12:48:15;93191.06;;;22.09;28.45
65376;BME280;51976;47.332;9.404;2023-01-30T12:54:09;93198.94;;;22.10;28.71
65376;BME280;51976;47.332;9.404;2023-01-30T12:56:53;93212.09;;;22.05;28.57
65376;BME280;51976;47.332;9.404;2023-01-30T12:59:42;93195.38;;;21.98;28.89
65376;BME280;51976;47.332;9.404;2023-01-30T13:05:24;93195.16;;;21.90;28.91
65376;BME280;51976;47.332;9.404;2023-01-30T13:08:30;93204.78;;;21.84;29.00
65376;BME280;51976;47.332;9.404;2023-01-30T13:11:44;93215.84;;;21.76;29.18
65376;BME280;51976;47.332;9.404;2023-01-30T13:14:13;93209.09;;;21.73;29.23
65376;BME280;51976;47.332;9.404;2023-01-30T13:17:03;93200.28;;;21.68;29.16
65376;BME280;51976;47.332;9.404;2023-01-30T13:19:43;93225.53;;;21.61;29.35
65376;BME280;51976;47.332;9.404;2023-01-30T13:22:22;93214.13;;;21.59;29.54
65376;BME280;51976;47.332;9.404;2023-01-30T13:25:13;93217.44;;;21.52;29.55
65376;BME280;51976;47.332;9.404;2023-01-30T13:27:56;93226.34;;;21.49;29.54
65376;BME280;51976;47.332;9.404;2023-01-30T13:30:23;93211.25;;;21.43;29.67
65376;BME280;51976;47.332;9.404;2023-01-30T13:32:55;93217.41;;;21.40;29.68
65376;BME280;51976;47.332;9.404;2023-01-30T13:35:28;93238.09;;;21.38;29.68
65376;BME280;51976;47.332;9.404;2023-01-30T13:37:56;93230.53;;;21.35;29.88